Klamath Falls, OR (97603)

1:57 PM PDT on October 01, 2016 (GMT -0700)
South Suburban | | Change Station

Elev 4121 ft 42.18 °N, 121.74 °W | Updated 1 minute ago

Scattered Clouds
Scattered Clouds
57.5 °F
Feels Like 57.5 °F
N
4.0
Wind Variable Wind from SW
Gusts 9.0 mph

Today
High -- | Low -- °F
--% Chance of Precip.
Yesterday
High -- | Low -- °F
Precip. -- in
Pressure 30.06 in
Visibility 10.0 miles
Clouds Scattered Clouds 5500 ft
Dew Point 33 °F
Humidity 40%
Rainfall in
Snow Depth Not available.
7:04 AM 6:47 PM
New Moon, 1% visible
METAR KLMT 012053Z 27013KT 10SM SCT055 14/M02 A3008 RMK AO2 SLP179 T01391017 58010 $
Pressure 30.06 in
Visibility 10.0 miles
Clouds Scattered Clouds 5500 ft
Dew Point 33 °F
Humidity 40%
Rainfall in
Snow Depth Not available.
7:04 AM 6:47 PM
New Moon, 1% visible
METAR KLMT 012053Z 27013KT 10SM SCT055 14/M02 A3008 RMK AO2 SLP179 T01391017 58010 $

10-Day Weather Forecast

Almanac

Astronomy

Oct. 01, 2016 Rise Set
Actual Time
Civil Twilight
Nautical Twilight
Astronomical Twilight
Moon
Length of Visible Light
Length of Day
Tomorrow will be .
, % of the Moon is Illuminated

Today's Extremes

State Highs State Lows

Community

WunderPhotos

Upload Photos

1,943,017 photos uploaded!

WunderBlog® & News

Nearby

Air Quality

  Air Quality AQ Index Pollutant
Not available.

Snow Depth

Station Depth Elevation

Earthquake Activity

City Distance Mag. Time & Date
Minimum magnitude displayed is 2.5.

Coastal Water Temperatures

Place Temperature

Stations

Nearby Weather Stations

Station Location Temp. Windchill Dew Point Humidity Wind Precip. Elev Updated Type
                   

Watches & Warnings

There are currently no watches in effect.